Time;durP1;ratioP1;P1;durP2;ratioP2;P2;SDS_P1;SDS_P2;PMS_P1;PMS_P2;Temp;Humidity;BMP_temperature;BMP_pressure;BME280_temperature;BME280_humidity;BME280_pressure;Samples;Min_cycle;Max_cycle;Signal;HPM_P1;HPM_P2
2022/04/05 00:00:58;;;;;;;15.43;2.43;;;5.30;99.90;;;;;;5033155;28;20695;-65
2022/04/05 00:03:27;;;;;;;14.33;2.60;;;5.30;99.90;;;;;;5037918;28;20477;-65
2022/04/05 00:05:55;;;;;;;13.33;2.27;;;5.30;99.90;;;;;;5032929;28;20483;-65
2022/04/05 00:08:23;;;;;;;14.07;2.30;;;5.40;99.90;;;;;;5032820;28;20486;-65
2022/04/05 00:10:51;;;;;;;13.23;2.30;;;5.40;99.90;;;;;;5032765;28;20319;-65
2022/04/05 00:13:21;;;;;;;11.20;2.57;;;5.40;99.90;;;;;;5032486;28;20236;-65
2022/04/05 00:15:50;;;;;;;10.67;2.27;;;5.40;99.90;;;;;;5032313;28;20986;-65
2022/04/05 00:18:18;;;;;;;10.00;1.80;;;5.40;99.90;;;;;;5032785;28;20323;-65
2022/04/05 00:20:46;;;;;;;12.57;2.57;;;5.40;99.90;;;;;;5038971;28;20483;-65
2022/04/05 00:23:15;;;;;;;9.93;1.83;;;5.40;99.90;;;;;;5033680;28;20833;-65
2022/04/05 00:25:43;;;;;;;13.87;2.33;;;5.50;99.90;;;;;;5032008;28;20232;-65
2022/04/05 00:28:12;;;;;;;13.20;2.00;;;5.50;99.90;;;;;;5032378;28;20978;-65
2022/04/05 00:30:41;;;;;;;10.70;1.70;;;5.50;99.90;;;;;;5032200;28;20240;-65
2022/04/05 00:33:09;;;;;;;11.83;1.93;;;5.50;99.90;;;;;;5032391;28;20483;-65
2022/04/05 00:35:37;;;;;;;12.27;2.40;;;5.50;99.90;;;;;;5031989;28;20998;-64
2022/04/05 00:38:06;;;;;;;10.60;2.20;;;5.60;99.90;;;;;;5032378;28;20490;-64
2022/04/05 00:40:35;;;;;;;16.17;2.07;;;5.60;99.90;;;;;;5032076;28;20574;-64
2022/04/05 00:43:05;;;;;;;11.90;1.87;;;5.60;99.90;;;;;;5037647;28;20545;-64
2022/04/05 00:45:34;;;;;;;8.10;1.70;;;5.60;99.90;;;;;;5033022;28;20236;-64
2022/04/05 00:48:05;;;;;;;10.47;1.70;;;5.60;99.90;;;;;;5032117;28;20240;-64
2022/04/05 00:50:36;;;;;;;10.83;1.77;;;5.60;99.90;;;;;;5031918;28;21002;-65
2022/04/05 00:53:07;;;;;;;10.60;2.13;;;5.60;99.90;;;;;;5034029;28;20886;-64
2022/04/05 00:55:36;;;;;;;12.47;2.07;;;5.60;99.90;;;;;;5032675;28;20492;-64
2022/04/05 00:58:04;;;;;;;16.30;2.30;;;5.60;99.90;;;;;;5031892;28;20594;-64
2022/04/05 01:00:34;;;;;;;11.53;1.80;;;5.60;99.90;;;;;;5031595;28;20482;-64
2022/04/05 01:03:03;;;;;;;11.17;1.80;;;5.60;99.90;;;;;;5037171;28;20490;-64
2022/04/05 01:05:35;;;;;;;9.33;1.60;;;5.50;99.90;;;;;;5031194;28;20483;-64
2022/04/05 01:08:06;;;;;;;14.43;2.00;;;5.40;99.90;;;;;;5031533;28;20499;-65
2022/04/05 01:10:35;;;;;;;11.07;1.50;;;5.40;99.90;;;;;;5031494;28;20470;-65
2022/04/05 01:13:03;;;;;;;9.90;1.87;;;5.30;99.90;;;;;;5030722;28;20239;-65
2022/04/05 01:15:31;;;;;;;7.23;1.60;;;5.30;99.90;;;;;;5031218;28;20267;-65
2022/04/05 01:18:00;;;;;;;10.30;1.47;;;5.20;99.90;;;;;;5031964;28;20247;-65
2022/04/05 01:20:29;;;;;;;11.50;1.77;;;5.20;99.90;;;;;;5031344;28;20246;-65
2022/04/05 01:22:58;;;;;;;7.17;1.47;;;5.10;99.90;;;;;;5030950;28;20258;-65
2022/04/05 01:25:27;;;;;;;6.80;1.00;;;5.10;99.90;;;;;;5046649;28;20474;-65
2022/04/05 01:27:55;;;;;;;9.47;1.53;;;5.10;99.90;;;;;;5037227;28;20328;-65
2022/04/05 01:30:24;;;;;;;8.17;1.30;;;5.10;99.90;;;;;;5042030;28;20234;-65
2022/04/05 01:32:54;;;;;;;10.13;1.43;;;5.10;99.90;;;;;;5036267;28;20475;-65
2022/04/05 01:35:22;;;;;;;6.67;0.90;;;5.00;99.90;;;;;;5041941;28;20314;-65
2022/04/05 01:37:50;;;;;;;11.03;1.47;;;5.00;99.90;;;;;;5037655;28;20297;-65
2022/04/05 01:40:18;;;;;;;5.43;1.40;;;5.00;99.90;;;;;;5041129;28;20242;-65
2022/04/05 01:42:47;;;;;;;7.10;1.60;;;5.00;99.90;;;;;;5047982;28;20334;-64
2022/04/05 01:45:16;;;;;;;4.83;1.43;;;5.10;99.90;;;;;;5043874;28;20489;-65
2022/04/05 01:47:44;;;;;;;6.60;1.43;;;5.10;99.90;;;;;;5037874;28;20616;-65
2022/04/05 01:50:12;;;;;;;6.27;1.37;;;5.10;99.90;;;;;;5040567;28;20475;-65
2022/04/05 01:52:40;;;;;;;8.20;1.00;;;5.10;99.90;;;;;;5042970;28;20319;-65
2022/04/05 01:55:09;;;;;;;9.83;1.40;;;5.10;99.90;;;;;;5050348;28;20993;-65
2022/04/05 01:57:37;;;;;;;11.80;1.30;;;5.10;99.90;;;;;;5046847;28;20250;-65
2022/04/05 02:00:15;;;;;;;9.07;1.57;;;5.10;99.90;;;;;;5050541;28;20984;-65
2022/04/05 02:02:43;;;;;;;9.53;1.60;;;5.10;99.90;;;;;;5043700;28;20242;-65
2022/04/05 02:05:11;;;;;;;10.30;1.37;;;5.10;99.90;;;;;;5042034;28;20828;-65
2022/04/05 02:07:40;;;;;;;9.10;1.80;;;5.10;99.90;;;;;;5038625;28;20251;-65
2022/04/05 02:10:09;;;;;;;11.83;1.50;;;5.10;99.90;;;;;;5039615;28;20482;-65
2022/04/05 02:12:39;;;;;;;11.60;1.57;;;5.00;99.90;;;;;;5041673;28;20481;-65
2022/04/05 02:15:19;;;;;;;6.93;1.20;;;5.00;99.90;;;;;;5050489;28;20317;-65
2022/04/05 02:17:55;;;;;;;10.63;1.93;;;5.00;99.90;;;;;;5035008;28;20473;-65
2022/04/05 02:20:27;;;;;;;13.17;2.00;;;4.90;99.90;;;;;;5038254;28;20557;-65
2022/04/05 02:22:56;;;;;;;14.97;2.03;;;4.90;99.90;;;;;;5048400;28;20472;-65
2022/04/05 02:25:39;;;;;;;11.10;1.70;;;4.90;99.90;;;;;;5041530;28;20239;-65
2022/04/05 02:28:08;;;;;;;7.23;1.50;;;4.80;99.90;;;;;;5033118;28;20606;-65
2022/04/05 02:30:46;;;;;;;6.23;1.20;;;4.80;99.90;;;;;;5042784;28;20529;-65
2022/04/05 02:33:17;;;;;;;11.17;1.57;;;4.80;99.90;;;;;;5032046;28;20984;-65
2022/04/05 02:35:47;;;;;;;9.33;1.37;;;4.80;99.90;;;;;;5042858;28;20478;-65
2022/04/05 02:38:16;;;;;;;7.80;1.90;;;4.80;99.90;;;;;;5032071;28;20981;-65
2022/04/05 02:40:45;;;;;;;17.47;1.97;;;4.80;99.90;;;;;;5042675;28;20580;-65
2022/04/05 02:43:16;;;;;;;9.67;1.50;;;4.80;99.90;;;;;;5045822;28;20981;-65
2022/04/05 02:45:47;;;;;;;8.50;1.60;;;4.80;99.90;;;;;;5043912;28;20240;-65
2022/04/05 02:48:17;;;;;;;8.97;1.77;;;4.80;99.90;;;;;;5045962;28;20528;-65
2022/04/05 02:50:45;;;;;;;5.87;1.47;;;4.80;99.90;;;;;;5043845;28;20994;-65
2022/04/05 02:53:14;;;;;;;4.87;1.47;;;4.80;99.90;;;;;;5045465;28;20468;-65
2022/04/05 02:55:43;;;;;;;6.73;1.50;;;4.80;99.90;;;;;;5044308;28;20467;-65
2022/04/05 02:58:12;;;;;;;9.20;1.47;;;4.70;99.90;;;;;;5045254;28;20466;-65
2022/04/05 03:00:41;;;;;;;7.93;1.33;;;4.70;99.90;;;;;;5044226;28;20983;-65
2022/04/05 03:03:15;;;;;;;6.77;1.30;;;4.70;99.90;;;;;;5044680;28;20474;-65
2022/04/05 03:05:50;;;;;;;8.07;1.13;;;4.70;99.90;;;;;;5043076;28;20473;-65
2022/04/05 03:08:20;;;;;;;12.43;3.17;;;4.60;99.90;;;;;;5032329;28;20548;-65
2022/04/05 03:10:49;;;;;;;5.97;1.10;;;4.60;99.90;;;;;;5048054;28;20248;-65
2022/04/05 03:13:18;;;;;;;6.73;1.40;;;4.60;99.90;;;;;;5031093;28;20512;-65
2022/04/05 03:15:47;;;;;;;7.73;1.10;;;4.60;99.90;;;;;;5042660;28;20474;-65
2022/04/05 03:18:18;;;;;;;10.13;1.47;;;4.60;99.90;;;;;;5031578;28;20473;-65
2022/04/05 03:20:46;;;;;;;7.13;1.30;;;4.60;99.90;;;;;;5043339;28;20482;-65
2022/04/05 03:23:14;;;;;;;10.17;1.53;;;4.50;99.90;;;;;;5046083;28;20467;-65
2022/04/05 03:25:42;;;;;;;9.20;1.37;;;4.50;99.90;;;;;;5045356;28;20514;-65
2022/04/05 03:28:11;;;;;;;7.77;1.50;;;4.50;99.90;;;;;;5046230;28;20534;-65
2022/04/05 03:30:39;;;;;;;9.23;2.43;;;4.50;99.90;;;;;;5044411;28;20483;-65
2022/04/05 03:33:07;;;;;;;12.27;1.73;;;4.60;99.90;;;;;;5044475;28;20484;-65
2022/04/05 03:35:38;;;;;;;9.70;1.73;;;4.60;99.90;;;;;;5044764;28;20564;-65
2022/04/05 03:38:06;;;;;;;6.10;1.07;;;4.60;99.90;;;;;;5048361;28;20477;-65
2022/04/05 03:40:35;;;;;;;9.17;1.47;;;4.50;99.90;;;;;;5051112;28;20981;-65
2022/04/05 03:43:11;;;;;;;8.60;1.60;;;4.50;99.90;;;;;;5048089;28;20495;-65
2022/04/05 03:45:40;;;;;;;6.97;1.13;;;4.50;99.90;;;;;;5024997;28;20544;-65
2022/04/05 03:48:09;;;;;;;7.17;1.13;;;4.50;99.90;;;;;;5045275;28;20475;-65
2022/04/05 03:50:40;;;;;;;8.37;1.63;;;4.50;99.90;;;;;;5047663;28;20601;-65
2022/04/05 03:53:08;;;;;;;9.43;1.63;;;4.40;99.90;;;;;;5048640;28;20239;-64
2022/04/05 03:55:36;;;;;;;7.33;1.30;;;4.50;99.90;;;;;;5047788;28;20554;-65
2022/04/05 03:58:08;;;;;;;7.40;1.07;;;4.60;99.90;;;;;;5047455;28;20477;-65
2022/04/05 04:00:36;;;;;;;6.40;1.40;;;4.60;99.90;;;;;;5049035;28;20549;-65
2022/04/05 04:03:13;;;;;;;8.40;1.63;;;4.60;99.90;;;;;;5047593;28;20876;-65
2022/04/05 04:05:43;;;;;;;9.00;1.40;;;4.60;99.90;;;;;;5044572;28;20528;-64
2022/04/05 04:08:13;;;;;;;10.37;1.30;;;4.50;99.90;;;;;;5034682;28;20482;-64
2022/04/05 04:10:43;;;;;;;7.73;1.10;;;4.50;99.90;;;;;;5049453;28;21057;-64
2022/04/05 04:13:11;;;;;;;8.10;1.23;;;4.50;99.90;;;;;;5034894;28;20290;-64
2022/04/05 04:15:43;;;;;;;6.23;1.47;;;4.40;99.90;;;;;;5044641;28;20556;-64
2022/04/05 04:18:12;;;;;;;6.13;1.20;;;4.40;99.90;;;;;;5034966;28;20843;-64
2022/04/05 04:20:44;;;;;;;6.77;1.70;;;4.30;99.90;;;;;;5050153;28;20559;-65
2022/04/05 04:23:16;;;;;;;8.67;1.53;;;4.20;99.90;;;;;;5048234;28;20474;-65
2022/04/05 04:25:51;;;;;;;7.13;1.13;;;4.20;99.90;;;;;;5045627;28;20537;-65
2022/04/05 04:28:20;;;;;;;9.83;2.03;;;4.10;99.90;;;;;;5048711;28;20470;-65
2022/04/05 04:30:50;;;;;;;6.73;1.20;;;4.20;99.90;;;;;;5047195;28;20235;-65
2022/04/05 04:33:18;;;;;;;4.27;1.13;;;4.20;99.90;;;;;;5049692;28;20480;-65
2022/04/05 04:35:48;;;;;;;4.87;1.00;;;4.20;99.90;;;;;;5047107;28;20997;-65
2022/04/05 04:38:17;;;;;;;9.20;1.60;;;4.30;99.90;;;;;;5047599;28;20513;-65
2022/04/05 04:40:50;;;;;;;8.60;1.40;;;4.20;99.90;;;;;;5051725;28;20470;-65
2022/04/05 04:43:19;;;;;;;7.23;1.07;;;4.20;99.90;;;;;;5048590;28;20483;-65
2022/04/05 04:45:48;;;;;;;8.33;1.30;;;4.20;99.90;;;;;;5046220;28;20988;-65
2022/04/05 04:48:17;;;;;;;9.07;1.20;;;4.40;99.90;;;;;;5034763;28;20233;-65
2022/04/05 04:50:45;;;;;;;7.27;1.30;;;4.50;99.90;;;;;;5045768;28;20477;-65
2022/04/05 04:53:14;;;;;;;6.97;1.40;;;4.40;99.90;;;;;;5047972;28;20839;-65
2022/04/05 04:55:43;;;;;;;6.27;1.20;;;4.30;99.90;;;;;;5051437;28;20574;-65
2022/04/05 04:58:31;;;;;;;10.40;1.73;;;4.40;99.90;;;;;;5032266;28;20481;-65
2022/04/05 05:01:00;;;;;;;7.93;1.23;;;4.30;99.90;;;;;;5046272;28;20468;-65
2022/04/05 05:03:28;;;;;;;10.60;1.50;;;4.30;99.90;;;;;;5034757;28;20471;-65
2022/04/05 05:05:57;;;;;;;7.40;1.33;;;4.20;99.90;;;;;;5048259;28;20519;-65
2022/04/05 05:08:27;;;;;;;8.53;1.20;;;4.10;99.90;;;;;;5047477;28;20472;-65
2022/04/05 05:10:55;;;;;;;9.93;1.40;;;4.10;99.90;;;;;;5045647;28;20479;-65
2022/04/05 05:13:23;;;;;;;5.40;1.17;;;4.00;99.90;;;;;;5051465;28;20457;-65
2022/04/05 05:15:52;;;;;;;9.93;1.87;;;4.00;99.90;;;;;;5045773;28;20835;-65
2022/04/05 05:18:20;;;;;;;6.23;1.30;;;4.00;99.90;;;;;;5049186;28;20498;-65
2022/04/05 05:20:48;;;;;;;10.23;1.20;;;4.00;99.90;;;;;;5045468;28;20478;-65
2022/04/05 05:23:16;;;;;;;7.43;1.43;;;4.00;99.90;;;;;;5048413;28;20482;-65
2022/04/05 05:25:47;;;;;;;4.13;1.00;;;4.10;99.90;;;;;;5050724;28;20517;-65
2022/04/05 05:28:15;;;;;;;8.23;1.20;;;4.10;99.90;;;;;;5050983;28;20558;-65
2022/04/05 05:30:44;;;;;;;5.93;1.00;;;4.10;99.90;;;;;;5052358;28;20543;-65
2022/04/05 05:33:12;;;;;;;4.87;1.20;;;4.10;99.90;;;;;;5034868;28;20475;-65
2022/04/05 05:35:41;;;;;;;5.47;1.30;;;4.20;99.90;;;;;;5030633;28;20474;-65
2022/04/05 05:38:10;;;;;;;5.53;1.17;;;4.20;99.90;;;;;;5031090;28;20489;-64
2022/04/05 05:40:38;;;;;;;8.00;1.47;;;4.20;99.90;;;;;;5030621;28;20565;-65
2022/04/05 05:43:09;;;;;;;5.47;1.20;;;4.20;99.90;;;;;;5036622;28;21042;-65
2022/04/05 05:45:37;;;;;;;5.40;1.17;;;4.20;99.90;;;;;;5031629;28;20478;-65
2022/04/05 05:48:07;;;;;;;8.73;1.43;;;4.20;99.90;;;;;;5030805;28;20473;-64
2022/04/05 05:50:36;;;;;;;5.00;1.10;;;4.20;99.90;;;;;;5030797;28;20474;-65
2022/04/05 05:53:05;;;;;;;5.13;1.23;;;4.20;99.90;;;;;;5034121;28;21056;-65
2022/04/05 05:55:35;;;;;;;4.37;1.33;;;4.30;99.90;;;;;;5030836;28;20569;-65
2022/04/05 05:58:04;;;;;;;5.40;1.20;;;4.20;99.90;;;;;;5031096;28;20467;-65
2022/04/05 06:00:33;;;;;;;3.70;1.00;;;4.40;99.90;;;;;;5029713;28;20478;-65
2022/04/05 06:03:03;;;;;;;6.77;1.40;;;4.30;99.90;;;;;;5030227;28;20564;-65
2022/04/05 06:05:32;;;;;;;5.00;1.07;;;4.30;99.90;;;;;;5030357;28;20461;-65
2022/04/05 06:08:01;;;;;;;6.83;1.57;;;4.30;99.90;;;;;;5030884;28;20475;-65
2022/04/05 06:10:29;;;;;;;6.53;1.50;;;4.40;99.90;;;;;;5030016;28;20982;-65
2022/04/05 06:12:58;;;;;;;7.77;1.63;;;4.50;99.90;;;;;;5030531;28;20463;-65
2022/04/05 06:15:27;;;;;;;10.03;1.60;;;4.50;99.90;;;;;;5042236;28;20471;-65
2022/04/05 06:17:57;;;;;;;8.50;1.80;;;4.80;99.90;;;;;;5050574;28;20463;-65
2022/04/05 06:20:27;;;;;;;6.50;1.47;;;4.80;99.90;;;;;;5049891;28;20552;-65
2022/04/05 06:22:57;;;;;;;6.97;1.43;;;4.90;99.90;;;;;;5047464;28;20480;-65
2022/04/05 06:25:28;;;;;;;7.93;1.40;;;5.00;99.90;;;;;;5049655;28;20537;-65
2022/04/05 06:27:56;;;;;;;7.73;1.57;;;5.20;99.90;;;;;;5050804;28;20470;-65
2022/04/05 06:30:25;;;;;;;6.30;1.30;;;5.30;99.90;;;;;;5042208;28;20550;-64
2022/04/05 06:33:05;;;;;;;8.67;1.67;;;5.30;99.90;;;;;;5031344;28;20485;-65
2022/04/05 06:35:33;;;;;;;8.57;2.00;;;5.40;99.90;;;;;;5039825;28;20995;-65
2022/04/05 06:38:01;;;;;;;8.00;1.80;;;5.50;99.90;;;;;;5030160;28;20487;-65
2022/04/05 06:40:29;;;;;;;10.13;2.00;;;5.50;99.90;;;;;;5030364;28;20869;-65
2022/04/05 06:42:57;;;;;;;7.57;2.07;;;5.50;99.90;;;;;;5046196;28;20478;-65
2022/04/05 06:45:27;;;;;;;8.90;1.60;;;5.50;99.90;;;;;;5057483;28;20469;-65
2022/04/05 06:47:55;;;;;;;9.90;2.03;;;5.60;99.90;;;;;;5060955;28;20549;-65
2022/04/05 06:50:25;;;;;;;10.57;2.00;;;5.50;99.90;;;;;;5059145;28;20223;-65
2022/04/05 06:52:55;;;;;;;6.80;1.30;;;5.70;99.90;;;;;;5046905;28;20231;-65
2022/04/05 06:55:23;;;;;;;11.13;1.37;;;5.70;99.90;;;;;;5022351;28;20229;-65
2022/04/05 06:57:53;;;;;;;5.23;1.80;;;5.70;99.90;;;;;;5029169;28;20463;-65
2022/04/05 07:00:23;;;;;;;6.07;1.20;;;5.90;99.90;;;;;;5030233;28;20727;-65
2022/04/05 07:02:52;;;;;;;9.17;1.53;;;6.10;99.90;;;;;;5033758;28;20248;-65
2022/04/05 07:05:22;;;;;;;6.03;1.10;;;6.30;99.90;;;;;;5030077;28;20429;-65
2022/04/05 07:07:52;;;;;;;5.00;1.33;;;6.60;99.90;;;;;;5030266;28;20247;-65
2022/04/05 07:10:21;;;;;;;7.53;1.63;;;6.90;99.90;;;;;;5029906;28;20463;-65
2022/04/05 07:12:50;;;;;;;8.13;1.60;;;6.90;99.90;;;;;;5032403;28;20271;-65
2022/04/05 07:15:18;;;;;;;9.77;1.40;;;6.90;99.90;;;;;;5034864;28;20235;-65
2022/04/05 07:17:47;;;;;;;8.93;1.67;;;6.90;99.90;;;;;;5033664;28;20483;-65
2022/04/05 07:20:34;;;;;;;7.17;1.50;;;7.00;99.90;;;;;;5033142;28;20237;-65
2022/04/05 07:23:04;;;;;;;7.77;1.67;;;7.30;99.90;;;;;;5041853;28;20477;-65
2022/04/05 07:25:35;;;;;;;6.57;1.43;;;7.40;99.90;;;;;;5034155;28;20240;-65
2022/04/05 07:28:04;;;;;;;12.53;2.17;;;7.60;99.90;;;;;;5033829;28;20236;-65
2022/04/05 07:30:32;;;;;;;6.70;2.10;;;7.60;99.90;;;;;;5033445;28;20237;-65
2022/04/05 07:33:00;;;;;;;11.07;1.77;;;7.70;99.90;;;;;;5034004;28;20707;-65
2022/04/05 07:35:28;;;;;;;9.33;1.50;;;7.80;99.90;;;;;;5033307;28;20684;-65
2022/04/05 07:37:57;;;;;;;10.07;1.67;;;7.70;99.90;;;;;;5033781;28;20240;-65
2022/04/05 07:40:47;;;;;;;5.33;1.30;;;7.70;99.90;;;;;;5033276;28;20233;-65
2022/04/05 07:43:15;;;;;;;4.93;1.27;;;7.40;99.90;;;;;;5032492;28;20291;-65
2022/04/05 07:45:44;;;;;;;4.83;1.10;;;7.40;99.90;;;;;;5032972;28;20237;-65
2022/04/05 07:48:12;;;;;;;3.93;1.20;;;7.30;99.90;;;;;;5038243;28;20637;-65
2022/04/05 07:50:40;;;;;;;8.87;1.50;;;7.20;99.90;;;;;;5049027;28;20243;-65
2022/04/05 07:53:11;;;;;;;8.33;1.73;;;7.20;99.90;;;;;;5049486;28;20251;-65
2022/04/05 07:55:41;;;;;;;5.67;0.90;;;7.20;99.90;;;;;;5042251;28;20596;-65
2022/04/05 07:58:09;;;;;;;5.43;1.47;;;7.20;99.90;;;;;;5049121;28;20826;-65
2022/04/05 08:00:37;;;;;;;5.37;1.50;;;7.20;99.90;;;;;;5049086;28;20259;-65
2022/04/05 08:03:06;;;;;;;5.70;1.40;;;7.10;99.90;;;;;;5047775;28;20591;-65
2022/04/05 08:05:34;;;;;;;5.03;1.20;;;7.10;99.90;;;;;;5051933;28;20293;-65
2022/04/05 08:08:03;;;;;;;7.10;1.43;;;7.20;99.90;;;;;;5052630;28;20643;-65
2022/04/05 08:10:31;;;;;;;4.30;1.00;;;7.20;99.90;;;;;;5049788;28;20247;-65
2022/04/05 08:13:00;;;;;;;4.30;1.33;;;7.20;99.90;;;;;;5047868;28;20286;-65
2022/04/05 08:15:28;;;;;;;3.27;0.80;;;7.30;99.90;;;;;;5050032;28;20262;-65
2022/04/05 08:17:57;;;;;;;5.27;1.27;;;7.50;99.90;;;;;;5047307;28;20608;-65
2022/04/05 08:20:26;;;;;;;6.90;1.07;;;7.60;99.90;;;;;;5050426;28;20308;-65
2022/04/05 08:22:54;;;;;;;6.67;1.67;;;7.50;99.90;;;;;;5045679;28;20231;-65
2022/04/05 08:25:22;;;;;;;10.03;1.40;;;7.30;99.90;;;;;;5050782;28;20627;-65
2022/04/05 08:27:50;;;;;;;7.20;1.33;;;7.30;99.90;;;;;;5045945;28;20247;-65
2022/04/05 08:30:20;;;;;;;7.87;1.70;;;7.20;99.90;;;;;;5049435;28;20259;-65
2022/04/05 08:32:49;;;;;;;6.70;1.63;;;7.20;99.90;;;;;;5049619;28;20315;-65
2022/04/05 08:35:19;;;;;;;4.03;1.23;;;7.20;99.90;;;;;;5047204;28;20235;-65
2022/04/05 08:37:49;;;;;;;5.87;1.20;;;7.20;99.90;;;;;;5049314;28;20236;-65
2022/04/05 08:40:19;;;;;;;10.20;1.47;;;7.30;99.90;;;;;;5051492;28;20251;-65
2022/04/05 08:42:49;;;;;;;8.00;1.40;;;7.30;99.90;;;;;;5051006;28;20232;-65
2022/04/05 08:45:20;;;;;;;6.13;1.73;;;7.30;99.90;;;;;;5048942;28;20236;-65
2022/04/05 08:47:50;;;;;;;5.87;1.30;;;7.30;99.90;;;;;;5051473;28;20254;-65
2022/04/05 08:50:20;;;;;;;4.87;1.20;;;7.40;99.90;;;;;;5048984;28;20231;-65
2022/04/05 08:52:49;;;;;;;9.53;1.20;;;7.60;99.90;;;;;;5050928;28;20234;-65
2022/04/05 08:55:19;;;;;;;7.67;1.13;;;7.60;99.90;;;;;;5048401;28;20228;-65
2022/04/05 08:57:47;;;;;;;8.37;1.27;;;7.60;99.90;;;;;;5051242;28;20240;-65
2022/04/05 09:00:21;;;;;;;6.27;1.20;;;7.50;99.90;;;;;;5041566;28;20267;-65
2022/04/05 09:02:55;;;;;;;4.93;1.33;;;7.30;99.90;;;;;;5042559;28;20294;-65
2022/04/05 09:05:28;;;;;;;6.03;1.77;;;7.30;99.90;;;;;;5049144;28;20326;-65
2022/04/05 09:08:20;;;;;;;7.70;1.30;;;7.30;99.90;;;;;;5041219;28;20326;-65
2022/04/05 09:10:51;;;;;;;7.17;1.33;;;7.20;99.90;;;;;;5049707;28;20339;-65
2022/04/05 09:13:22;;;;;;;5.40;1.10;;;7.20;99.90;;;;;;5043183;28;20235;-65
2022/04/05 09:15:56;;;;;;;7.47;1.30;;;7.30;99.90;;;;;;5044849;28;20323;-65
2022/04/05 09:18:44;;;;;;;5.07;1.00;;;7.30;99.90;;;;;;5047616;28;20237;-65
2022/04/05 09:21:14;;;;;;;7.97;1.17;;;7.30;99.90;;;;;;5042848;28;20239;-65
2022/04/05 09:23:45;;;;;;;4.13;1.00;;;7.20;99.90;;;;;;5049063;28;20240;-65
2022/04/05 09:26:15;;;;;;;5.17;1.10;;;7.20;99.90;;;;;;5042975;28;20323;-65
2022/04/05 09:28:45;;;;;;;3.23;1.13;;;7.10;99.90;;;;;;5051044;28;20240;-65
2022/04/05 09:31:17;;;;;;;9.13;1.30;;;7.20;99.90;;;;;;5048731;28;20628;-65
2022/04/05 09:34:02;;;;;;;7.47;1.40;;;7.10;99.90;;;;;;5048270;28;20250;-65
2022/04/05 09:36:34;;;;;;;9.70;1.13;;;7.10;99.90;;;;;;5041912;28;20591;-65
2022/04/05 09:39:16;;;;;;;6.57;1.20;;;7.20;99.90;;;;;;5047714;28;20327;-65
2022/04/05 09:41:44;;;;;;;6.77;1.03;;;7.20;99.90;;;;;;5043677;28;20251;-65
2022/04/05 09:44:12;;;;;;;8.10;1.67;;;7.30;99.90;;;;;;5044014;28;20766;-65
2022/04/05 09:46:43;;;;;;;5.93;1.00;;;7.30;99.90;;;;;;5044519;28;20246;-65
2022/04/05 09:49:15;;;;;;;7.10;1.17;;;7.40;99.90;;;;;;5043488;28;20727;-65
2022/04/05 09:51:45;;;;;;;5.67;1.10;;;7.50;99.90;;;;;;5044511;28;20235;-65
2022/04/05 09:54:27;;;;;;;4.90;1.00;;;7.50;99.90;;;;;;5044080;28;20248;-65
2022/04/05 09:57:06;;;;;;;7.40;1.40;;;7.60;99.90;;;;;;5043126;28;20236;-65
2022/04/05 09:59:39;;;;;;;6.70;1.13;;;7.60;99.90;;;;;;5022627;28;20335;-65
2022/04/05 10:02:11;;;;;;;4.53;1.20;;;7.60;99.90;;;;;;5030170;28;20246;-65
2022/04/05 10:05:02;;;;;;;3.60;0.93;;;7.50;99.90;;;;;;5026028;28;20718;-65
2022/04/05 10:07:32;;;;;;;6.07;1.43;;;7.50;99.90;;;;;;5027861;28;20239;-65
2022/04/05 10:10:01;;;;;;;6.13;1.10;;;7.50;99.90;;;;;;5028603;28;20680;-65
2022/04/05 10:12:30;;;;;;;4.50;1.23;;;7.50;99.90;;;;;;5029005;28;20641;-65
2022/04/05 10:14:59;;;;;;;3.57;1.03;;;7.70;99.90;;;;;;5028700;28;20362;-65
2022/04/05 10:17:30;;;;;;;9.53;1.33;;;7.70;99.90;;;;;;5035646;28;20247;-65
2022/04/05 10:19:58;;;;;;;3.27;0.97;;;7.80;99.90;;;;;;5029811;28;20732;-65
2022/04/05 10:22:27;;;;;;;5.90;1.10;;;7.90;99.90;;;;;;5032853;28;20267;-65
2022/04/05 10:24:56;;;;;;;4.20;1.27;;;7.90;99.90;;;;;;5033808;28;20327;-65
2022/04/05 10:27:26;;;;;;;5.23;0.83;;;7.80;99.90;;;;;;5032432;28;20244;-65
2022/04/05 10:30:03;;;;;;;3.83;1.20;;;7.80;99.90;;;;;;5031529;28;20232;-65
2022/04/05 10:32:47;;;;;;;4.03;0.80;;;7.90;99.90;;;;;;5027192;28;20263;-65
2022/04/05 10:35:16;;;;;;;5.57;1.20;;;7.90;99.90;;;;;;5024959;28;20271;-65
2022/04/05 10:37:44;;;;;;;4.57;1.17;;;7.80;99.90;;;;;;5022967;28;21398;-65
2022/04/05 10:40:15;;;;;;;4.47;1.10;;;7.70;99.90;;;;;;5022372;28;20310;-65
2022/04/05 10:42:46;;;;;;;3.27;0.90;;;7.60;99.90;;;;;;5023190;28;20577;-65
2022/04/05 10:45:16;;;;;;;3.90;1.10;;;7.60;99.90;;;;;;5026749;28;20248;-65
2022/04/05 10:48:10;;;;;;;6.17;1.53;;;7.50;99.90;;;;;;5027305;28;20366;-65
2022/04/05 10:51:30;;;;;;;5.67;1.00;;;7.70;99.90;;;;;;5026345;28;20254;-65
2022/04/05 10:54:22;;;;;;;6.33;1.27;;;7.80;99.90;;;;;;5027044;28;20248;-65
2022/04/05 10:57:20;;;;;;;6.40;1.13;;;7.90;99.90;;;;;;5026415;28;20247;-65
2022/04/05 10:59:50;;;;;;;5.77;1.20;;;7.80;99.90;;;;;;5025650;28;20682;-65
2022/04/05 11:02:35;;;;;;;6.27;1.13;;;7.70;99.90;;;;;;5026583;28;20724;-65
2022/04/05 11:05:32;;;;;;;2.80;0.80;;;7.70;99.90;;;;;;5026979;28;20244;-65
2022/04/05 11:08:08;;;;;;;3.10;1.10;;;7.70;99.90;;;;;;5047576;28;20244;-65
2022/04/05 11:10:54;;;;;;;6.33;0.93;;;7.70;99.90;;;;;;5030717;28;20664;-65
2022/04/05 11:13:39;;;;;;;5.23;1.00;;;7.70;99.90;;;;;;5033731;28;20623;-65
2022/04/05 11:16:13;;;;;;;3.73;1.20;;;7.70;99.90;;;;;;5033694;28;20236;-65
2022/04/05 11:18:44;;;;;;;4.47;1.00;;;7.80;99.90;;;;;;5015297;28;20259;-64
2022/04/05 11:21:12;;;;;;;3.03;0.90;;;7.80;99.90;;;;;;5030694;28;20302;-65
2022/04/05 11:23:50;;;;;;;1.80;0.80;;;7.80;99.90;;;;;;5025547;28;20229;-65
2022/04/05 11:26:27;;;;;;;7.27;1.23;;;7.80;99.90;;;;;;5029322;28;20294;-65
2022/04/05 11:28:56;;;;;;;4.20;1.40;;;8.00;99.90;;;;;;5026771;28;20260;-65
2022/04/05 11:31:34;;;;;;;4.03;1.10;;;8.10;99.90;;;;;;5033275;28;20243;-65
2022/04/05 11:34:38;;;;;;;3.47;0.90;;;8.10;99.90;;;;;;5025946;28;20298;-65
2022/04/05 11:37:09;;;;;;;4.57;1.20;;;8.00;99.90;;;;;;5025952;28;20737;-65
2022/04/05 11:39:40;;;;;;;4.50;1.07;;;8.00;99.90;;;;;;5024345;28;20255;-65
2022/04/05 11:42:09;;;;;;;3.60;1.30;;;7.90;99.90;;;;;;5026160;28;20248;-65
2022/04/05 11:44:37;;;;;;;5.70;1.20;;;7.90;99.90;;;;;;5026180;28;20255;-65
2022/04/05 11:47:07;;;;;;;4.73;1.70;;;7.80;99.90;;;;;;5026556;28;20680;-64
2022/04/05 11:49:43;;;;;;;3.77;1.53;;;7.80;99.90;;;;;;5025102;28;20236;-66
2022/04/05 11:52:12;;;;;;;2.00;0.80;;;7.80;99.90;;;;;;5026281;28;20278;-65
2022/04/05 11:57:27;;;;;;;1.73;0.80;;;7.60;99.90;;;;;;5037507;28;20267;-66
2022/04/05 12:00:06;;;;;;;3.40;0.77;;;7.60;99.90;;;;;;5024831;28;20738;-65
2022/04/05 12:02:35;;;;;;;3.50;0.83;;;7.50;99.90;;;;;;5025279;28;20766;-65
2022/04/05 12:05:03;;;;;;;1.90;0.70;;;7.50;99.90;;;;;;5040865;28;20327;-65
2022/04/05 12:07:35;;;;;;;2.53;0.80;;;7.60;99.90;;;;;;5025486;28;20240;-65
2022/04/05 12:10:06;;;;;;;1.97;0.80;;;7.70;99.90;;;;;;5024418;28;20328;-65
2022/04/05 12:12:34;;;;;;;1.57;0.73;;;7.80;99.90;;;;;;5025482;28;20236;-65
2022/04/05 12:15:15;;;;;;;4.57;0.90;;;7.90;99.90;;;;;;5025501;28;20251;-65
2022/04/05 12:17:45;;;;;;;2.83;0.93;;;8.00;99.90;;;;;;5025348;28;20245;-64
2022/04/05 12:20:18;;;;;;;5.00;1.00;;;7.80;99.90;;;;;;5023676;28;20244;-64
2022/04/05 12:22:46;;;;;;;2.43;0.90;;;7.70;99.90;;;;;;5025099;28;20671;-65
2022/04/05 12:25:16;;;;;;;3.23;0.97;;;7.60;99.90;;;;;;5025333;28;20240;-65
2022/04/05 12:27:54;;;;;;;3.47;1.20;;;7.50;99.90;;;;;;5028522;28;20240;-65
2022/04/05 12:30:28;;;;;;;3.53;1.33;;;7.60;99.90;;;;;;5042120;28;20235;-65
2022/04/05 12:33:03;;;;;;;3.17;1.07;;;7.70;99.90;;;;;;5048821;28;20265;-65
2022/04/05 12:35:31;;;;;;;2.17;1.00;;;7.80;99.90;;;;;;5045258;28;20250;-65
2022/04/05 12:37:59;;;;;;;3.13;1.50;;;7.80;99.90;;;;;;5049619;28;20228;-65
2022/04/05 12:40:38;;;;;;;3.80;1.47;;;7.80;99.90;;;;;;5039011;28;20569;-65
2022/04/05 12:43:15;;;;;;;1.90;0.90;;;7.80;99.90;;;;;;5028541;28;20323;-65
2022/04/05 12:45:43;;;;;;;2.23;0.80;;;7.70;99.90;;;;;;5038113;28;20714;-65
2022/04/05 12:48:12;;;;;;;2.70;1.20;;;7.70;99.90;;;;;;5031231;28;20280;-65
2022/04/05 12:50:43;;;;;;;4.10;1.00;;;7.70;99.90;;;;;;5030238;28;20589;-65
2022/04/05 12:53:13;;;;;;;1.97;0.97;;;7.50;99.90;;;;;;5028620;28;20239;-65
2022/04/05 12:55:42;;;;;;;3.73;1.00;;;7.50;99.90;;;;;;5032982;28;20742;-65
2022/04/05 12:58:11;;;;;;;3.60;0.97;;;7.50;99.90;;;;;;5030654;28;20264;-65
2022/04/05 13:00:44;;;;;;;4.63;1.30;;;7.50;99.90;;;;;;5029879;28;20246;-65
2022/04/05 13:03:16;;;;;;;3.00;1.00;;;7.60;99.90;;;;;;5032376;28;20281;-65
2022/04/05 13:08:38;;;;;;;3.87;0.97;;;7.40;99.90;;;;;;5033756;28;20236;-65
2022/04/05 13:11:25;;;;;;;2.10;0.80;;;7.30;99.90;;;;;;5028598;28;20241;-65
2022/04/05 13:14:05;;;;;;;3.10;0.70;;;7.30;99.90;;;;;;5027196;28;20241;-65
2022/04/05 13:16:34;;;;;;;2.57;1.10;;;7.20;99.90;;;;;;5035309;28;20243;-65
2022/04/05 13:19:08;;;;;;;1.77;0.93;;;7.20;99.90;;;;;;5031072;28;21227;-64
2022/04/05 13:21:44;;;;;;;2.50;0.90;;;7.20;99.90;;;;;;5030551;28;20244;-64